Time;durP1;ratioP1;P1;durP2;ratioP2;P2;SDS_P1;SDS_P2;PMS_P1;PMS_P2;Temp;Humidity;BMP_temperature;BMP_pressure;BME280_temperature;BME280_humidity;BME280_pressure;Samples;Min_cycle;Max_cycle;Signal;HPM_P1;HPM_P2
2022/10/20 00:02:15;;;;;;;19.67;17.90;;;;;;;13.86;63.97;95371.09;5117948;28;20198;-67
2022/10/20 00:04:43;;;;;;;19.20;17.30;;;;;;;13.84;63.71;95373.47;5136302;27;20195;-67
2022/10/20 00:07:11;;;;;;;18.25;16.75;;;;;;;13.82;63.62;95375.78;5118306;27;20191;-68
2022/10/20 00:09:37;;;;;;;19.17;17.48;;;;;;;13.83;63.64;95376.56;5117581;28;20232;-67
2022/10/20 00:12:05;;;;;;;17.23;15.77;;;;;;;13.79;63.21;95370.97;5135795;27;20183;-67
2022/10/20 00:14:32;;;;;;;16.60;15.05;;;;;;;13.78;63.12;95377.69;5135861;28;20187;-67
2022/10/20 00:17:00;;;;;;;16.63;15.05;;;;;;;13.78;62.96;95379.66;5118216;28;20195;-67
2022/10/20 00:19:27;;;;;;;16.77;15.18;;;;;;;13.75;62.57;95375.63;5136358;28;20277;-67
2022/10/20 00:21:55;;;;;;;15.82;14.27;;;;;;;13.73;62.51;95375.22;5136420;28;20199;-68
2022/10/20 00:24:22;;;;;;;15.75;14.38;;;;;;;13.73;62.24;95378.00;5136580;28;20194;-67
2022/10/20 00:26:48;;;;;;;15.10;13.77;;;;;;;13.70;62.19;95371.19;5118276;28;20191;-67
2022/10/20 00:29:15;;;;;;;15.77;14.30;;;;;;;13.69;61.85;95368.81;5135665;28;20229;-67
2022/10/20 00:31:43;;;;;;;14.98;13.52;;;;;;;13.66;61.75;95377.84;5118074;28;20645;-67
2022/10/20 00:34:10;;;;;;;13.95;12.52;;;;;;;13.64;61.51;95369.09;5117904;28;20191;-67
2022/10/20 00:36:37;;;;;;;13.38;12.07;;;;;;;13.64;61.22;95358.00;5118733;28;20195;-67
2022/10/20 00:39:05;;;;;;;13.52;12.30;;;;;;;13.62;61.44;95352.84;5136151;28;20187;-67
2022/10/20 00:41:33;;;;;;;13.77;12.52;;;;;;;13.61;61.17;95361.50;5118164;28;20199;-67
2022/10/20 00:44:01;;;;;;;12.88;11.73;;;;;;;13.61;61.17;95355.94;5135652;28;20606;-67
2022/10/20 00:46:33;;;;;;;12.23;11.23;;;;;;;13.58;60.90;95354.72;5135957;28;20210;-67
2022/10/20 00:49:03;;;;;;;12.60;11.32;;;;;;;13.57;60.73;95353.09;5118106;28;20221;-67
2022/10/20 00:51:30;;;;;;;11.80;10.70;;;;;;;13.56;60.39;95357.06;5117588;28;20198;-68
2022/10/20 00:54:00;;;;;;;12.15;11.07;;;;;;;13.55;60.32;95351.88;5112201;28;20231;-67
2022/10/20 00:56:28;;;;;;;11.82;10.82;;;;;;;13.54;60.32;95351.06;5115330;28;20195;-67
2022/10/20 00:58:56;;;;;;;11.05;10.15;;;;;;;13.51;59.85;95349.03;5114829;28;20176;-67
2022/10/20 01:01:22;;;;;;;11.35;10.25;;;;;;;13.49;59.77;95354.94;5097081;28;20196;-67
2022/10/20 01:03:51;;;;;;;11.07;10.07;;;;;;;13.47;59.88;95357.28;5114860;28;20205;-67
2022/10/20 01:06:19;;;;;;;11.00;10.10;;;;;;;13.46;59.76;95355.66;5115164;28;20241;-67
2022/10/20 01:08:46;;;;;;;10.35;9.45;;;;;;;13.45;59.61;95351.28;5114931;28;20207;-67
2022/10/20 01:11:18;;;;;;;10.32;9.35;;;;;;;13.47;59.61;95360.06;5097261;28;20203;-67
2022/10/20 01:14:07;;;;;;;10.45;9.55;;;;;;;13.47;59.80;95360.06;5115244;28;20207;-67
2022/10/20 01:16:39;;;;;;;10.40;9.43;;;;;;;13.47;59.47;95360.06;5097758;28;20572;-67
2022/10/20 01:19:20;;;;;;;10.40;9.40;;;;;;;13.48;59.39;95360.84;5114670;28;20173;-67
2022/10/20 01:22:12;;;;;;;9.90;9.00;;;;;;;13.46;59.34;95355.66;5096971;28;20203;-67
2022/10/20 01:24:47;;;;;;;10.80;9.90;;;;;;;13.45;59.15;95362.38;5117085;28;20196;-67
2022/10/20 01:27:40;;;;;;;9.90;8.90;;;;;;;13.44;58.99;95351.66;5100697;28;20195;-67
2022/10/20 01:30:10;;;;;;;9.20;8.50;;;;;;;13.44;59.09;95355.25;5076200;28;20551;-67
2022/10/20 01:32:47;;;;;;;9.73;8.93;;;;;;;13.45;59.17;95353.25;5100917;28;20199;-67
2022/10/20 01:35:21;;;;;;;9.70;8.88;;;;;;;13.44;59.25;95360.78;5100687;28;20203;-67
2022/10/20 01:37:51;;;;;;;9.88;8.98;;;;;;;13.42;59.25;95354.78;5118381;28;20188;-67
2022/10/20 01:40:24;;;;;;;9.73;8.82;;;;;;;13.41;59.23;95357.94;5100527;28;20210;-67
2022/10/20 01:42:54;;;;;;;9.38;8.63;;;;;;;13.38;59.33;95353.91;5100761;28;20191;-67
2022/10/20 01:45:24;;;;;;;10.27;9.40;;;;;;;13.35;59.33;95357.41;5100278;28;20203;-67
2022/10/20 01:47:52;;;;;;;9.60;8.82;;;;;;;13.33;59.47;95353.41;5118296;28;20198;-67
2022/10/20 01:50:19;;;;;;;10.23;9.32;;;;;;;13.31;59.58;95358.50;5117946;28;20219;-67
2022/10/20 01:52:46;;;;;;;10.00;9.18;;;;;;;13.30;59.74;95365.22;5118154;28;20245;-67
2022/10/20 01:55:15;;;;;;;9.75;8.95;;;;;;;13.27;60.01;95368.72;5115089;27;20238;-67
2022/10/20 01:57:51;;;;;;;10.10;9.20;;;;;;;13.24;59.87;95357.19;5120614;27;20187;-67
2022/10/20 02:00:20;;;;;;;10.20;9.23;;;;;;;13.22;60.44;95376.13;5138198;27;20182;-67
2022/10/20 02:03:07;;;;;;;9.48;8.68;;;;;;;13.18;60.54;95374.41;5138885;27;20187;-67
2022/10/20 02:05:43;;;;;;;9.77;8.88;;;;;;;13.14;60.66;95368.78;5103573;27;20607;-67
2022/10/20 02:08:13;;;;;;;9.93;9.13;;;;;;;13.10;60.63;95378.19;5138400;27;20195;-67
2022/10/20 02:10:45;;;;;;;10.38;9.50;;;;;;;13.06;60.88;95382.84;5120550;27;20254;-67
2022/10/20 02:13:13;;;;;;;10.25;9.35;;;;;;;13.02;61.07;95378.03;5138018;27;20183;-67
2022/10/20 02:15:44;;;;;;;10.35;9.43;;;;;;;13.00;60.84;95379.56;5138235;27;20183;-67
2022/10/20 02:18:14;;;;;;;10.65;9.75;;;;;;;12.96;60.91;95375.91;5138391;27;20175;-67
2022/10/20 02:20:43;;;;;;;10.35;9.45;;;;;;;12.93;61.14;95380.22;5138314;27;20195;-67
2022/10/20 02:23:10;;;;;;;10.35;9.43;;;;;;;12.89;61.31;95389.56;5120626;27;20211;-67
2022/10/20 02:25:38;;;;;;;10.65;9.75;;;;;;;12.85;61.18;95386.72;5138110;27;20198;-67
2022/10/20 02:28:06;;;;;;;10.32;9.30;;;;;;;12.82;61.21;95394.94;5138111;27;20210;-67
2022/10/20 02:30:33;;;;;;;10.40;9.52;;;;;;;12.80;61.51;95395.31;5119754;27;20242;-67
2022/10/20 02:33:01;;;;;;;11.27;10.27;;;;;;;12.76;61.51;95389.69;5137630;27;20179;-67
2022/10/20 02:35:31;;;;;;;10.82;9.80;;;;;;;12.75;61.33;95390.88;5137313;27;20198;-67
2022/10/20 02:37:58;;;;;;;10.70;9.73;;;;;;;12.73;61.54;95395.94;5119947;27;20595;-67
2022/10/20 02:40:26;;;;;;;10.88;9.85;;;;;;;12.70;61.61;95402.19;5137561;27;20179;-67
2022/10/20 02:42:53;;;;;;;11.77;10.63;;;;;;;12.67;61.66;95399.34;5119923;27;20529;-67
2022/10/20 02:45:20;;;;;;;11.40;10.40;;;;;;;12.64;61.45;95398.09;5119405;27;20299;-67
2022/10/20 02:47:47;;;;;;;12.27;11.18;;;;;;;12.64;61.88;95405.59;5119797;27;20199;-67
2022/10/20 02:50:15;;;;;;;11.15;10.25;;;;;;;12.62;61.77;95410.69;5137205;27;20226;-67
2022/10/20 02:52:42;;;;;;;12.82;11.63;;;;;;;12.58;61.92;95410.59;5137581;27;20189;-67
2022/10/20 02:55:09;;;;;;;11.60;10.57;;;;;;;12.56;61.73;95409.34;5122397;27;20231;-68
2022/10/20 02:57:36;;;;;;;11.75;10.75;;;;;;;12.57;61.81;95416.50;5116959;28;20184;-67
2022/10/20 03:00:04;;;;;;;11.23;10.27;;;;;;;12.52;61.80;95412.81;5098967;28;20198;-67
2022/10/20 03:02:30;;;;;;;11.02;10.10;;;;;;;12.50;62.10;95411.59;5099398;28;20191;-67
2022/10/20 03:04:57;;;;;;;11.25;10.25;;;;;;;12.50;61.97;95414.34;5099128;28;20206;-67
2022/10/20 03:07:26;;;;;;;9.82;8.95;;;;;;;12.49;62.09;95409.97;5098934;28;20195;-67
2022/10/20 03:09:53;;;;;;;11.57;10.48;;;;;;;12.48;61.91;95411.94;5116693;28;20199;-67
2022/10/20 03:12:19;;;;;;;11.57;10.57;;;;;;;12.47;62.40;95415.84;5098655;28;20202;-67
2022/10/20 03:14:46;;;;;;;11.30;10.30;;;;;;;12.47;62.61;95421.41;5098740;28;20183;-67
2022/10/20 03:17:13;;;;;;;11.60;10.52;;;;;;;12.46;62.43;95422.56;5098964;28;20200;-67
2022/10/20 03:19:40;;;;;;;11.57;10.57;;;;;;;12.46;62.27;95421.75;5098910;28;20200;-67
2022/10/20 03:22:07;;;;;;;12.68;11.57;;;;;;;12.44;62.59;95415.78;5098766;28;20203;-67
2022/10/20 03:24:35;;;;;;;11.82;10.73;;;;;;;12.40;62.84;95420.41;5098490;28;20196;-67
2022/10/20 03:27:02;;;;;;;11.48;10.45;;;;;;;12.40;62.60;95418.44;5116345;28;20194;-67
2022/10/20 03:29:29;;;;;;;11.05;10.05;;;;;;;12.37;62.87;95424.69;5116336;28;20214;-66
2022/10/20 03:31:56;;;;;;;11.38;10.38;;;;;;;12.35;62.94;95429.78;5116126;28;20215;-67
2022/10/20 03:34:23;;;;;;;11.50;10.50;;;;;;;12.32;62.75;95422.19;5098614;28;20191;-67
2022/10/20 03:36:49;;;;;;;11.32;10.23;;;;;;;12.33;62.96;95425.75;5115911;28;20297;-67
2022/10/20 03:39:16;;;;;;;11.93;10.75;;;;;;;12.32;62.98;95427.72;5116653;28;20194;-67
2022/10/20 03:41:44;;;;;;;12.25;11.15;;;;;;;12.30;63.05;95430.03;5098554;28;20203;-67
2022/10/20 03:44:11;;;;;;;10.43;9.52;;;;;;;12.28;63.16;95446.19;5116331;28;20200;-68
2022/10/20 03:46:38;;;;;;;10.57;9.57;;;;;;;12.28;63.01;95441.47;5116195;28;20198;-68
2022/10/20 03:49:05;;;;;;;11.07;10.13;;;;;;;12.29;63.29;95445.03;5097318;28;20191;-67
2022/10/20 03:51:31;;;;;;;10.88;9.85;;;;;;;12.29;63.21;95429.22;5098645;28;20204;-67
2022/10/20 03:53:58;;;;;;;11.57;10.57;;;;;;;12.29;63.07;95431.19;5102502;27;20238;-67
2022/10/20 03:56:25;;;;;;;11.57;10.52;;;;;;;12.29;63.31;95440.28;5136167;27;20179;-67
2022/10/20 03:58:53;;;;;;;11.30;10.25;;;;;;;12.29;63.23;95445.03;5136689;27;20179;-67
2022/10/20 04:01:21;;;;;;;11.25;10.25;;;;;;;12.27;63.08;95441.78;5136505;27;20183;-67
2022/10/20 04:03:48;;;;;;;11.30;10.20;;;;;;;12.26;63.16;95445.72;5118609;28;20195;-67
2022/10/20 04:06:15;;;;;;;11.38;10.38;;;;;;;12.25;63.47;95455.19;5136288;27;20182;-67
2022/10/20 04:08:42;;;;;;;10.43;9.52;;;;;;;12.26;63.42;95446.53;5118601;28;20522;-67
2022/10/20 04:11:09;;;;;;;11.55;10.45;;;;;;;12.27;63.55;95448.16;5118387;28;20222;-67
2022/10/20 04:13:36;;;;;;;11.35;10.27;;;;;;;12.27;63.34;95447.31;5136316;28;20599;-67
2022/10/20 04:16:04;;;;;;;10.52;9.63;;;;;;;12.26;63.32;95449.28;5136123;28;20216;-67
2022/10/20 04:18:32;;;;;;;10.30;9.35;;;;;;;12.27;63.16;95453.69;5135927;28;20202;-67
2022/10/20 04:20:59;;;;;;;11.52;10.52;;;;;;;12.28;63.37;95451.72;5118738;28;20191;-67
2022/10/20 04:23:26;;;;;;;11.57;10.57;;;;;;;12.27;63.42;95452.84;5117983;28;20202;-67
2022/10/20 04:25:53;;;;;;;11.02;9.93;;;;;;;12.25;63.47;95450.47;5136443;28;20195;-67
2022/10/20 04:28:20;;;;;;;10.32;9.10;;;;;;;12.21;63.69;95454.28;5118191;28;20217;-67
2022/10/20 04:30:47;;;;;;;9.95;8.95;;;;;;;12.21;63.28;95448.75;5117684;28;20214;-67
2022/10/20 04:33:16;;;;;;;10.50;9.50;;;;;;;12.20;63.51;95444.38;5117807;28;20187;-67
2022/10/20 04:35:43;;;;;;;10.52;9.60;;;;;;;12.15;63.53;95447.41;5135899;28;20175;-67
2022/10/20 04:38:10;;;;;;;10.55;8.85;;;;;;;12.13;63.75;95452.47;5135865;28;20183;-67
2022/10/20 04:40:37;;;;;;;9.70;8.80;;;;;;;12.11;63.72;95443.75;5135626;28;20595;-67
2022/10/20 04:43:03;;;;;;;10.00;9.05;;;;;;;12.11;63.96;95446.50;5136035;28;20187;-67
2022/10/20 04:45:30;;;;;;;9.65;8.85;;;;;;;12.10;63.96;95447.69;5117671;28;20523;-67
2022/10/20 04:47:57;;;;;;;10.10;9.13;;;;;;;12.09;64.06;95448.81;5118233;28;20195;-67
2022/10/20 04:50:26;;;;;;;9.82;8.82;;;;;;;12.05;64.04;95454.25;5118083;28;20211;-67
2022/10/20 04:52:53;;;;;;;9.77;8.88;;;;;;;12.04;64.11;95447.13;5127771;28;20203;-67
2022/10/20 04:55:20;;;;;;;9.10;8.20;;;;;;;12.03;64.49;95456.56;5101635;28;20272;-67
2022/10/20 04:57:47;;;;;;;9.68;8.82;;;;;;;12.03;64.44;95464.88;5115275;28;20195;-67
2022/10/20 05:00:15;;;;;;;9.07;8.20;;;;;;;12.02;64.01;95464.06;5100687;28;20219;-67
2022/10/20 05:02:42;;;;;;;8.95;8.15;;;;;;;12.00;64.13;95465.56;5085274;28;20537;-67
2022/10/20 05:05:09;;;;;;;9.80;8.65;;;;;;;12.00;64.13;95471.91;5119230;28;20203;-67
2022/10/20 05:07:37;;;;;;;9.35;8.45;;;;;;;11.99;64.11;95480.56;5101511;28;20180;-67
2022/10/20 05:10:05;;;;;;;10.15;9.25;;;;;;;11.97;64.41;95478.13;5119327;28;20203;-67
2022/10/20 05:12:32;;;;;;;9.77;8.65;;;;;;;11.99;64.31;95477.78;5119837;28;20198;-66
2022/10/20 05:14:59;;;;;;;9.57;8.68;;;;;;;11.95;64.55;95480.44;5119423;28;20200;-68
2022/10/20 05:17:26;;;;;;;9.35;8.45;;;;;;;11.95;64.34;95487.94;5101360;28;20504;-67
2022/10/20 05:19:53;;;;;;;9.18;8.27;;;;;;;11.96;64.38;95490.34;5101374;28;20188;-66
2022/10/20 05:22:20;;;;;;;9.23;8.43;;;;;;;11.94;64.46;95489.88;5119003;28;20204;-67
2022/10/20 05:24:48;;;;;;;9.50;8.68;;;;;;;11.93;64.51;95493.81;5119300;28;20192;-67
2022/10/20 05:27:15;;;;;;;9.77;8.88;;;;;;;11.92;64.45;95488.66;5101357;28;20226;-67
2022/10/20 05:29:41;;;;;;;9.18;8.27;;;;;;;11.91;64.60;95498.91;5100980;28;20202;-66
2022/10/20 05:32:08;;;;;;;9.52;8.63;;;;;;;11.91;64.30;95506.34;5118856;28;20188;-67
2022/10/20 05:34:35;;;;;;;9.07;8.18;;;;;;;11.89;64.83;95511.44;5101191;28;20195;-66
2022/10/20 05:37:01;;;;;;;9.50;8.60;;;;;;;11.89;64.83;95514.22;5100757;28;20203;-67
2022/10/20 05:39:28;;;;;;;8.95;8.15;;;;;;;11.88;64.64;95518.94;5118610;28;20195;-66
2022/10/20 05:41:56;;;;;;;9.48;8.50;;;;;;;11.90;64.77;95518.56;5118412;28;20482;-67
2022/10/20 05:44:23;;;;;;;10.63;9.52;;;;;;;11.90;64.86;95535.97;5100743;28;20202;-67
2022/10/20 05:46:50;;;;;;;9.77;8.70;;;;;;;11.90;65.08;95544.25;5118493;28;20200;-66
2022/10/20 05:49:17;;;;;;;9.63;8.70;;;;;;;11.90;65.24;95540.69;5100725;28;20210;-67
2022/10/20 05:51:45;;;;;;;9.80;8.90;;;;;;;11.88;65.58;95554.88;5100222;28;20223;-67
2022/10/20 05:54:13;;;;;;;10.10;9.20;;;;;;;11.90;65.26;95554.50;5106604;27;20674;-67
2022/10/20 05:56:39;;;;;;;10.25;9.15;;;;;;;11.91;65.03;95556.13;5121252;27;20199;-67
2022/10/20 05:59:08;;;;;;;10.80;9.70;;;;;;;11.91;65.29;95559.72;5138927;27;20196;-67
2022/10/20 06:01:46;;;;;;;9.80;8.93;;;;;;;11.88;65.88;95567.91;5138931;27;20179;-67
2022/10/20 06:04:13;;;;;;;10.55;9.65;;;;;;;11.88;65.96;95562.38;5138467;27;20532;-67
2022/10/20 06:06:40;;;;;;;11.20;10.20;;;;;;;11.91;66.23;95576.28;5138656;27;20183;-67
2022/10/20 06:09:08;;;;;;;11.95;10.77;;;;;;;11.90;66.37;95577.44;5138593;27;20197;-67
2022/10/20 06:11:35;;;;;;;11.77;10.68;;;;;;;11.90;66.34;95582.94;5137578;27;20203;-67
2022/10/20 06:14:02;;;;;;;11.32;10.30;;;;;;;11.90;66.78;95582.94;5138695;27;20199;-67
2022/10/20 06:16:31;;;;;;;12.10;11.00;;;;;;;11.91;66.98;95590.13;5138236;27;20610;-67
2022/10/20 06:19:01;;;;;;;11.93;10.82;;;;;;;11.92;67.20;95590.91;5138516;27;20198;-67
2022/10/20 06:21:29;;;;;;;12.13;10.85;;;;;;;11.93;67.19;95598.84;5138496;27;20222;-67
2022/10/20 06:23:57;;;;;;;12.70;11.40;;;;;;;11.95;67.60;95602.06;5138329;27;20183;-67
2022/10/20 06:26:25;;;;;;;13.13;11.07;;;;;;;11.97;67.73;95604.47;5138379;27;20191;-67
2022/10/20 06:28:55;;;;;;;14.55;12.02;;;;;;;11.97;67.24;95607.25;5137820;27;20206;-67
2022/10/20 06:31:23;;;;;;;12.30;11.10;;;;;;;11.95;67.97;95604.03;5138248;27;20203;-67
2022/10/20 06:33:52;;;;;;;12.40;11.10;;;;;;;11.98;67.51;95606.91;5120188;27;20203;-67
2022/10/20 06:36:20;;;;;;;13.20;11.90;;;;;;;12.03;67.43;95619.69;5119944;27;20522;-67
2022/10/20 06:38:47;;;;;;;12.27;11.18;;;;;;;12.05;67.65;95606.31;5120036;27;20206;-67
2022/10/20 06:41:16;;;;;;;12.38;11.18;;;;;;;12.11;67.30;95610.44;5119526;27;20197;-67
2022/10/20 06:43:43;;;;;;;12.23;11.13;;;;;;;12.14;67.52;95611.72;5138067;27;20191;-67
2022/10/20 06:46:13;;;;;;;12.02;10.93;;;;;;;12.19;67.37;95605.94;5119935;27;20191;-67
2022/10/20 06:48:40;;;;;;;12.82;11.18;;;;;;;12.24;67.25;95611.22;5119516;27;20198;-67
2022/10/20 06:51:11;;;;;;;12.48;11.27;;;;;;;12.27;67.44;95608.56;5119506;27;20215;-67
2022/10/20 06:53:38;;;;;;;12.52;11.23;;;;;;;12.29;67.20;95614.53;5136205;27;20187;-67
2022/10/20 06:56:06;;;;;;;12.30;11.05;;;;;;;12.34;66.84;95613.47;5098963;28;20196;-67
2022/10/20 06:58:34;;;;;;;11.95;10.82;;;;;;;12.38;66.37;95619.94;5117007;28;20184;-67
2022/10/20 07:01:02;;;;;;;11.48;10.40;;;;;;;12.41;66.58;95615.66;5117003;28;20192;-67
2022/10/20 07:03:30;;;;;;;12.43;11.32;;;;;;;12.47;66.79;95633.63;5116763;28;20179;-67
2022/10/20 07:05:57;;;;;;;10.40;9.50;;;;;;;12.48;65.76;95622.19;5098647;28;20196;-67
2022/10/20 07:08:27;;;;;;;11.02;10.10;;;;;;;12.49;65.90;95626.59;5098790;28;20199;-67
2022/10/20 07:10:59;;;;;;;11.55;10.45;;;;;;;12.53;66.07;95629.44;5098592;28;20207;-67
2022/10/20 07:13:27;;;;;;;11.68;10.57;;;;;;;12.55;65.55;95624.34;5098563;28;20616;-67
2022/10/20 07:15:54;;;;;;;10.95;9.95;;;;;;;12.59;65.10;95627.22;5116772;28;20245;-67
2022/10/20 07:18:21;;;;;;;12.13;10.93;;;;;;;12.59;65.02;95630.78;5116472;28;20201;-67
2022/10/20 07:20:48;;;;;;;12.02;10.93;;;;;;;12.61;65.12;95636.00;5116659;28;20202;-67
2022/10/20 07:23:14;;;;;;;12.50;11.02;;;;;;;12.66;65.02;95624.66;5098196;28;20192;-67
2022/10/20 07:25:43;;;;;;;10.85;9.85;;;;;;;12.72;65.18;95621.28;5116582;28;20191;-67
2022/10/20 07:28:10;;;;;;;11.13;10.02;;;;;;;12.82;64.99;95619.97;5098198;28;20196;-67
2022/10/20 07:30:39;;;;;;;10.93;9.93;;;;;;;12.91;65.54;95628.91;5098327;28;20214;-68
2022/10/20 07:33:06;;;;;;;10.75;9.75;;;;;;;13.01;65.02;95633.94;5116553;28;20245;-67
2022/10/20 07:35:33;;;;;;;11.77;10.65;;;;;;;13.06;63.68;95637.59;5116234;28;20191;-67
2022/10/20 07:38:00;;;;;;;10.93;9.95;;;;;;;13.08;64.02;95633.34;5116005;28;20180;-67
2022/10/20 07:40:27;;;;;;;11.80;10.55;;;;;;;13.11;63.77;95635.41;5115997;28;20214;-67
2022/10/20 07:42:55;;;;;;;11.40;10.30;;;;;;;13.12;63.54;95627.88;5098175;28;20620;-67
2022/10/20 07:45:21;;;;;;;12.55;10.77;;;;;;;13.16;63.32;95629.59;5098276;28;20539;-67
2022/10/20 07:47:48;;;;;;;10.93;9.88;;;;;;;13.22;63.22;95627.38;5116269;28;20195;-67
2022/10/20 07:50:15;;;;;;;11.73;10.52;;;;;;;13.29;63.38;95624.81;5098083;28;20636;-67
2022/10/20 07:52:42;;;;;;;11.48;10.38;;;;;;;13.32;63.21;95626.84;5097825;28;20223;-68
2022/10/20 07:55:11;;;;;;;10.75;9.85;;;;;;;13.37;63.00;95626.59;5097718;28;20231;-67
2022/10/20 07:57:38;;;;;;;10.02;9.13;;;;;;;13.50;63.73;95621.75;5098254;28;20736;-67
2022/10/20 08:00:08;;;;;;;11.07;9.98;;;;;;;13.61;62.34;95622.00;5115965;28;20184;-67
2022/10/20 08:02:34;;;;;;;10.02;9.13;;;;;;;13.70;62.19;95628.19;5115913;28;20192;-67
2022/10/20 08:05:01;;;;;;;10.32;9.35;;;;;;;13.78;61.54;95626.38;5115784;28;20542;-67
2022/10/20 08:07:28;;;;;;;9.70;8.65;;;;;;;13.84;60.67;95627.72;5098123;28;20197;-67
2022/10/20 08:09:55;;;;;;;9.52;8.63;;;;;;;13.81;60.47;95625.66;5115748;28;20196;-67
2022/10/20 08:12:21;;;;;;;9.60;8.70;;;;;;;13.72;59.68;95621.13;5115594;28;20223;-67
2022/10/20 08:14:48;;;;;;;8.95;8.13;;;;;;;13.61;59.70;95624.78;5115785;28;20690;-67
2022/10/20 08:17:16;;;;;;;7.95;7.18;;;;;;;13.58;59.96;95626.31;5098351;28;20200;-67
2022/10/20 08:19:43;;;;;;;9.30;8.40;;;;;;;13.71;60.26;95627.03;5097647;28;20600;-67
2022/10/20 08:22:10;;;;;;;9.30;7.70;;;;;;;13.81;59.87;95626.47;5097686;28;20207;-67
2022/10/20 08:24:36;;;;;;;8.43;7.63;;;;;;;13.96;59.08;95628.41;5116024;28;20183;-67
2022/10/20 08:27:03;;;;;;;7.82;7.07;;;;;;;14.08;58.46;95616.38;5098283;28;20528;-67
2022/10/20 08:29:30;;;;;;;7.68;6.97;;;;;;;14.24;58.84;95616.34;5115623;28;20279;-67
2022/10/20 08:31:57;;;;;;;8.63;7.30;;;;;;;14.30;57.36;95620.44;5115611;28;20216;-67
2022/10/20 08:34:26;;;;;;;7.57;6.82;;;;;;;14.31;57.01;95610.97;5082206;28;20210;-67
2022/10/20 08:36:52;;;;;;;7.55;6.85;;;;;;;14.36;56.85;95609.84;5119934;28;20195;-67
2022/10/20 08:39:19;;;;;;;8.18;7.03;;;;;;;14.44;56.74;95606.84;5101826;28;20188;-67
2022/10/20 08:41:48;;;;;;;8.38;7.53;;;;;;;14.62;56.57;95612.81;5101877;28;20188;-67
2022/10/20 08:44:19;;;;;;;8.50;7.45;;;;;;;14.69;55.82;95601.03;5101376;28;20206;-67
2022/10/20 08:46:46;;;;;;;7.45;6.75;;;;;;;14.79;56.53;95610.75;5119354;28;20192;-67
2022/10/20 08:49:20;;;;;;;7.32;6.63;;;;;;;14.90;55.85;95600.66;5119389;28;20195;-67
2022/10/20 08:51:48;;;;;;;7.32;6.63;;;;;;;15.06;54.83;95600.56;5101596;28;20246;-67
2022/10/20 08:54:16;;;;;;;7.07;6.38;;;;;;;15.21;54.29;95607.16;5119171;28;20242;-67
2022/10/20 08:56:44;;;;;;;6.63;6.03;;;;;;;15.27;53.76;95597.38;5119460;28;20187;-67
2022/10/20 08:59:27;;;;;;;6.32;5.78;;;;;;;15.29;51.99;95598.59;5101362;28;20215;-67
2022/10/20 09:01:55;;;;;;;6.18;5.68;;;;;;;15.33;51.80;95596.69;5119214;28;20187;-67
2022/10/20 09:04:25;;;;;;;6.60;5.10;;;;;;;15.41;52.44;95603.16;5101150;28;20192;-67
2022/10/20 09:06:57;;;;;;;5.95;5.38;;;;;;;15.47;51.69;95604.47;5101358;28;20188;-67
2022/10/20 09:09:25;;;;;;;5.75;5.25;;;;;;;15.54;51.46;95606.53;5101347;28;20290;-67
2022/10/20 09:11:52;;;;;;;5.63;5.13;;;;;;;15.60;50.70;95610.63;5100821;28;20212;-67
2022/10/20 09:14:19;;;;;;;5.47;4.97;;;;;;;15.69;50.66;95618.75;5118803;28;20203;-67
2022/10/20 09:16:46;;;;;;;5.65;4.63;;;;;;;15.77;50.41;95610.16;5101732;28;20203;-67
2022/10/20 09:19:17;;;;;;;5.47;4.97;;;;;;;15.86;49.48;95605.09;5101116;28;20188;-67
2022/10/20 09:21:45;;;;;;;4.68;4.10;;;;;;;15.88;48.15;95605.56;5100935;28;20226;-67
2022/10/20 09:24:13;;;;;;;5.03;4.55;;;;;;;15.89;47.73;95606.34;5100836;28;20199;-67
2022/10/20 09:26:43;;;;;;;4.68;4.28;;;;;;;15.95;48.32;95606.84;5118730;28;20190;-67
2022/10/20 09:29:12;;;;;;;5.15;4.25;;;;;;;16.09;47.84;95607.84;5100614;28;20200;-67
2022/10/20 09:31:41;;;;;;;4.57;4.18;;;;;;;16.17;47.13;95611.53;5100724;28;20211;-67
2022/10/20 09:34:24;;;;;;;4.80;4.40;;;;;;;16.20;47.77;95610.78;5118552;28;20186;-67
2022/10/20 09:36:53;;;;;;;5.03;4.50;;;;;;;16.24;47.41;95606.06;5118646;28;20270;-67
2022/10/20 09:39:24;;;;;;;5.40;4.45;;;;;;;16.30;47.08;95606.53;5100862;28;20195;-67
2022/10/20 09:42:00;;;;;;;4.50;4.10;;;;;;;16.39;46.68;95601.50;5118288;28;20596;-67
2022/10/20 09:44:27;;;;;;;5.25;4.20;;;;;;;16.45;46.83;95593.59;5100658;28;20195;-67
2022/10/20 09:46:54;;;;;;;5.63;4.63;;;;;;;16.27;45.94;95594.19;5100926;28;20188;-67
2022/10/20 09:49:24;;;;;;;4.47;4.07;;;;;;;16.19;45.83;95597.25;5100722;28;20188;-67
2022/10/20 09:51:52;;;;;;;4.50;4.10;;;;;;;16.11;46.12;95594.34;5100503;28;20219;-67
2022/10/20 09:54:20;;;;;;;5.00;4.50;;;;;;;16.22;46.58;95588.94;5100152;28;20242;-67
2022/10/20 09:56:48;;;;;;;4.45;4.05;;;;;;;16.36;46.07;95591.91;5118275;28;20262;-67
2022/10/20 09:59:20;;;;;;;4.40;4.00;;;;;;;16.46;46.07;95584.88;5099953;28;20631;-67
2022/10/20 10:01:55;;;;;;;4.50;4.05;;;;;;;16.53;46.00;95581.41;5117911;28;20523;-67
2022/10/20 10:04:33;;;;;;;5.30;4.75;;;;;;;16.64;46.56;95587.09;5100234;28;20195;-67
2022/10/20 10:07:00;;;;;;;4.40;4.00;;;;;;;16.72;44.95;95577.63;5118013;28;20199;-67
2022/10/20 10:09:33;;;;;;;4.82;4.43;;;;;;;16.80;45.33;95576.56;5100213;28;20192;-67
2022/10/20 10:12:03;;;;;;;4.53;4.13;;;;;;;16.92;45.42;95589.41;5118009;28;20232;-67
2022/10/20 10:14:32;;;;;;;4.35;4.05;;;;;;;16.97;44.03;95578.75;5118074;28;20274;-67
2022/10/20 10:16:59;;;;;;;4.30;4.00;;;;;;;16.92;43.23;95569.91;5117701;28;20619;-67
2022/10/20 10:19:27;;;;;;;4.10;3.80;;;;;;;16.90;44.04;95572.31;5099605;28;20187;-67
2022/10/20 10:21:55;;;;;;;5.93;4.32;;;;;;;16.95;44.25;95569.16;5100273;28;20203;-67
2022/10/20 10:24:42;;;;;;;3.95;3.65;;;;;;;16.97;43.67;95564.03;5099753;28;20200;-67
2022/10/20 10:27:21;;;;;;;4.28;3.90;;;;;;;17.01;43.82;95565.66;5100106;28;20199;-67
2022/10/20 10:29:48;;;;;;;4.55;4.15;;;;;;;17.09;43.75;95561.75;5099620;28;20192;-67
2022/10/20 10:32:16;;;;;;;4.68;3.92;;;;;;;17.17;43.52;95561.81;5117427;28;20208;-67
2022/10/20 10:34:49;;;;;;;4.05;3.75;;;;;;;17.21;43.56;95559.84;5117457;28;20184;-67
2022/10/20 10:37:18;;;;;;;4.35;3.97;;;;;;;17.27;43.08;95553.56;5099406;28;20200;-67
2022/10/20 10:39:46;;;;;;;4.40;4.00;;;;;;;17.32;43.26;95558.00;5117473;28;20230;-66
2022/10/20 10:42:35;;;;;;;4.28;3.92;;;;;;;17.34;43.13;95558.41;5099873;28;20184;-66
2022/10/20 10:45:09;;;;;;;4.28;3.88;;;;;;;17.21;42.44;95551.50;5099824;28;20203;-66
2022/10/20 10:47:50;;;;;;;4.50;4.10;;;;;;;17.14;42.60;95557.00;5117701;28;20184;-66
2022/10/20 10:50:29;;;;;;;4.40;4.00;;;;;;;17.16;42.59;95535.94;5117460;28;20198;-67
2022/10/20 10:53:04;;;;;;;4.65;4.25;;;;;;;17.24;42.94;95542.38;5117614;28;20204;-67
2022/10/20 10:55:36;;;;;;;3.92;3.63;;;;;;;17.26;42.56;95543.59;5116952;27;20226;-67
2022/10/20 10:58:08;;;;;;;4.63;4.25;;;;;;;17.35;42.80;95539.69;5136866;27;20183;-67
2022/10/20 11:00:42;;;;;;;4.18;3.88;;;;;;;17.39;42.54;95540.50;5119984;27;20198;-67
2022/10/20 11:03:21;;;;;;;4.57;3.50;;;;;;;17.37;42.15;95534.53;5120008;27;20206;-67
2022/10/20 11:06:17;;;;;;;4.40;4.00;;;;;;;17.36;41.75;95527.34;5137528;27;20187;-67
2022/10/20 11:09:00;;;;;;;4.15;3.80;;;;;;;17.36;42.56;95530.13;5134115;27;20222;-67
2022/10/20 11:11:38;;;;;;;4.38;4.07;;;;;;;17.43;43.24;95524.59;5119721;27;20187;-67
2022/10/20 11:14:15;;;;;;;4.38;4.07;;;;;;;17.43;41.33;95519.84;5119180;27;20194;-67
2022/10/20 11:16:45;;;;;;;4.07;3.78;;;;;;;17.44;42.82;95518.66;5137589;27;20186;-67
2022/10/20 11:19:40;;;;;;;5.13;3.90;;;;;;;17.42;42.17;95521.03;5137410;27;20184;-67
2022/10/20 11:22:16;;;;;;;4.65;3.88;;;;;;;17.39;41.60;95515.41;5119562;27;20221;-66
2022/10/20 11:24:47;;;;;;;4.22;3.85;;;;;;;17.37;41.38;95518.59;5119469;27;20191;-67
2022/10/20 11:27:17;;;;;;;4.18;3.88;;;;;;;17.35;40.92;95509.00;5119234;27;20191;-67
2022/10/20 11:29:46;;;;;;;4.25;3.75;;;;;;;17.34;42.11;95505.44;5119107;27;20195;-67
2022/10/20 11:32:20;;;;;;;4.90;4.35;;;;;;;17.38;42.06;95506.25;5136611;27;20215;-67
2022/10/20 11:34:53;;;;;;;4.25;3.95;;;;;;;17.40;41.54;95505.88;5119194;27;20194;-67
2022/10/20 11:37:23;;;;;;;4.55;4.10;;;;;;;17.44;41.91;95499.13;5136809;27;20209;-67